sensor_id;sensor_type;location;lat;lon;timestamp;pressure;altitude;pressure_sealevel;temperature;humidity
79374;BME280;68844;53.128;17.958;2023-09-08T00:00:15;102022.48;;;15.05;80.60
79374;BME280;68844;53.128;17.958;2023-09-08T00:03:02;102024.38;;;15.03;80.66
79374;BME280;68844;53.128;17.958;2023-09-08T00:05:29;102024.02;;;15.01;80.61
79374;BME280;68844;53.128;17.958;2023-09-08T00:07:56;102022.89;;;14.95;80.91
79374;BME280;68844;53.128;17.958;2023-09-08T00:10:22;102021.02;;;14.91;80.77
79374;BME280;68844;53.128;17.958;2023-09-08T00:12:49;102020.54;;;14.87;80.42
79374;BME280;68844;53.128;17.958;2023-09-08T00:15:15;102019.90;;;14.85;80.52
79374;BME280;68844;53.128;17.958;2023-09-08T00:17:42;102021.05;;;14.84;80.54
79374;BME280;68844;53.128;17.958;2023-09-08T00:20:09;102014.73;;;14.83;80.97
79374;BME280;68844;53.128;17.958;2023-09-08T00:22:37;102013.16;;;14.79;81.14
79374;BME280;68844;53.128;17.958;2023-09-08T00:25:04;102011.89;;;14.76;80.79
79374;BME280;68844;53.128;17.958;2023-09-08T00:27:31;102012.17;;;14.74;80.69
79374;BME280;68844;53.128;17.958;2023-09-08T00:29:59;102012.84;;;14.75;80.76
79374;BME280;68844;53.128;17.958;2023-09-08T00:32:30;102011.45;;;14.74;81.22
79374;BME280;68844;53.128;17.958;2023-09-08T00:34:56;102010.48;;;14.72;81.38
79374;BME280;68844;53.128;17.958;2023-09-08T00:37:23;102010.02;;;14.68;81.44
79374;BME280;68844;53.128;17.958;2023-09-08T00:39:51;102012.20;;;14.64;81.31
79374;BME280;68844;53.128;17.958;2023-09-08T00:42:17;102015.93;;;14.57;81.06
79374;BME280;68844;53.128;17.958;2023-09-08T00:44:44;102018.67;;;14.56;80.94
79374;BME280;68844;53.128;17.958;2023-09-08T00:47:11;102015.89;;;14.55;81.43
79374;BME280;68844;53.128;17.958;2023-09-08T00:49:38;102011.63;;;14.52;81.45
79374;BME280;68844;53.128;17.958;2023-09-08T00:52:05;102015.63;;;14.50;81.43
79374;BME280;68844;53.128;17.958;2023-09-08T00:54:32;102016.60;;;14.48;81.36
79374;BME280;68844;53.128;17.958;2023-09-08T00:57:01;102012.42;;;14.46;80.85
79374;BME280;68844;53.128;17.958;2023-09-08T00:59:31;102011.53;;;14.47;81.04
79374;BME280;68844;53.128;17.958;2023-09-08T01:01:59;102012.16;;;14.45;81.50
79374;BME280;68844;53.128;17.958;2023-09-08T01:04:27;102010.23;;;14.41;81.54
79374;BME280;68844;53.128;17.958;2023-09-08T01:06:55;102005.75;;;14.35;81.36
79374;BME280;68844;53.128;17.958;2023-09-08T01:09:23;102006.20;;;14.33;81.23
79374;BME280;68844;53.128;17.958;2023-09-08T01:11:51;102003.98;;;14.31;80.93
79374;BME280;68844;53.128;17.958;2023-09-08T01:14:18;102003.18;;;14.32;81.11
79374;BME280;68844;53.128;17.958;2023-09-08T01:16:48;102005.80;;;14.30;81.24
79374;BME280;68844;53.128;17.958;2023-09-08T01:19:16;102010.58;;;14.27;81.52
79374;BME280;68844;53.128;17.958;2023-09-08T01:22:04;102009.71;;;14.23;81.66
79374;BME280;68844;53.128;17.958;2023-09-08T01:27:35;102007.55;;;14.17;81.20
79374;BME280;68844;53.128;17.958;2023-09-08T01:30:06;102007.06;;;14.16;81.60
79374;BME280;68844;53.128;17.958;2023-09-08T01:32:34;102003.54;;;14.13;81.59
79374;BME280;68844;53.128;17.958;2023-09-08T01:35:01;102001.40;;;14.10;81.51
79374;BME280;68844;53.128;17.958;2023-09-08T01:37:28;101996.74;;;14.07;81.47
79374;BME280;68844;53.128;17.958;2023-09-08T01:39:54;101998.27;;;14.08;81.69
79374;BME280;68844;53.128;17.958;2023-09-08T01:42:21;101999.65;;;14.09;81.82
79374;BME280;68844;53.128;17.958;2023-09-08T01:44:47;101996.65;;;14.09;82.26
79374;BME280;68844;53.128;17.958;2023-09-08T01:47:14;101991.02;;;14.05;81.98
79374;BME280;68844;53.128;17.958;2023-09-08T01:49:41;101991.52;;;14.02;81.75
79374;BME280;68844;53.128;17.958;2023-09-08T01:52:07;101991.11;;;13.99;81.71
79374;BME280;68844;53.128;17.958;2023-09-08T01:54:35;101994.20;;;13.98;81.56
79374;BME280;68844;53.128;17.958;2023-09-08T01:57:02;101991.98;;;13.96;81.63
79374;BME280;68844;53.128;17.958;2023-09-08T01:59:29;101994.09;;;13.93;82.02
79374;BME280;68844;53.128;17.958;2023-09-08T02:01:55;101994.45;;;13.90;82.01
79374;BME280;68844;53.128;17.958;2023-09-08T02:04:22;101992.90;;;13.86;81.81
79374;BME280;68844;53.128;17.958;2023-09-08T02:06:48;101993.20;;;13.83;81.38
79374;BME280;68844;53.128;17.958;2023-09-08T02:09:15;101995.17;;;13.83;81.68
79374;BME280;68844;53.128;17.958;2023-09-08T02:11:42;101993.68;;;13.81;81.82
79374;BME280;68844;53.128;17.958;2023-09-08T02:14:09;101992.70;;;13.76;81.99
79374;BME280;68844;53.128;17.958;2023-09-08T02:16:36;101997.50;;;13.72;82.01
79374;BME280;68844;53.128;17.958;2023-09-08T02:19:02;101997.45;;;13.69;81.90
79374;BME280;68844;53.128;17.958;2023-09-08T02:21:29;101994.82;;;13.69;81.85
79374;BME280;68844;53.128;17.958;2023-09-08T02:23:55;101994.83;;;13.69;82.09
79374;BME280;68844;53.128;17.958;2023-09-08T02:26:22;101994.59;;;13.66;82.32
79374;BME280;68844;53.128;17.958;2023-09-08T02:28:49;101996.42;;;13.65;82.45
79374;BME280;68844;53.128;17.958;2023-09-08T02:31:16;101994.42;;;13.63;82.06
79374;BME280;68844;53.128;17.958;2023-09-08T02:33:43;101990.84;;;13.63;81.92
79374;BME280;68844;53.128;17.958;2023-09-08T02:36:10;101992.85;;;13.62;82.40
79374;BME280;68844;53.128;17.958;2023-09-08T02:38:37;101991.54;;;13.60;82.23
79374;BME280;68844;53.128;17.958;2023-09-08T02:41:05;101988.66;;;13.57;82.44
79374;BME280;68844;53.128;17.958;2023-09-08T02:43:31;101984.55;;;13.54;82.17
79374;BME280;68844;53.128;17.958;2023-09-08T02:45:58;101988.09;;;13.55;81.93
79374;BME280;68844;53.128;17.958;2023-09-08T02:48:25;101983.71;;;13.54;82.17
79374;BME280;68844;53.128;17.958;2023-09-08T02:50:51;101984.84;;;13.52;82.22
79374;BME280;68844;53.128;17.958;2023-09-08T02:53:20;101980.54;;;13.50;82.48
79374;BME280;68844;53.128;17.958;2023-09-08T02:55:46;101980.66;;;13.47;82.24
79374;BME280;68844;53.128;17.958;2023-09-08T02:58:13;101977.23;;;13.45;81.95
79374;BME280;68844;53.128;17.958;2023-09-08T03:00:39;101976.35;;;13.45;82.19
79374;BME280;68844;53.128;17.958;2023-09-08T03:03:06;101976.21;;;13.44;82.31
79374;BME280;68844;53.128;17.958;2023-09-08T03:05:33;101978.58;;;13.43;82.46
79374;BME280;68844;53.128;17.958;2023-09-08T03:08:00;101975.96;;;13.42;82.61
79374;BME280;68844;53.128;17.958;2023-09-08T03:10:26;101973.44;;;13.40;82.47
79374;BME280;68844;53.128;17.958;2023-09-08T03:12:54;101972.31;;;13.41;82.09
79374;BME280;68844;53.128;17.958;2023-09-08T03:15:22;101969.31;;;13.37;82.37
79374;BME280;68844;53.128;17.958;2023-09-08T03:17:49;101972.75;;;13.36;82.64
79374;BME280;68844;53.128;17.958;2023-09-08T03:20:15;101966.88;;;13.33;82.83
79374;BME280;68844;53.128;17.958;2023-09-08T03:22:42;101967.27;;;13.32;82.62
79374;BME280;68844;53.128;17.958;2023-09-08T03:25:13;101967.66;;;13.31;82.37
79374;BME280;68844;53.128;17.958;2023-09-08T03:27:40;101963.20;;;13.32;82.53
79374;BME280;68844;53.128;17.958;2023-09-08T03:30:07;101965.75;;;13.31;82.84
79374;BME280;68844;53.128;17.958;2023-09-08T03:32:34;101964.55;;;13.26;82.58
79374;BME280;68844;53.128;17.958;2023-09-08T03:35:00;101966.08;;;13.24;82.84
79374;BME280;68844;53.128;17.958;2023-09-08T03:37:27;101968.16;;;13.21;82.57
79374;BME280;68844;53.128;17.958;2023-09-08T03:39:54;101969.33;;;13.23;82.39
79374;BME280;68844;53.128;17.958;2023-09-08T03:42:21;101967.39;;;13.23;82.43
79374;BME280;68844;53.128;17.958;2023-09-08T03:44:48;101968.09;;;13.19;82.48
79374;BME280;68844;53.128;17.958;2023-09-08T03:47:14;101967.99;;;13.17;82.43
79374;BME280;68844;53.128;17.958;2023-09-08T03:49:41;101969.39;;;13.14;82.27
79374;BME280;68844;53.128;17.958;2023-09-08T03:52:07;101970.68;;;13.13;82.38
79374;BME280;68844;53.128;17.958;2023-09-08T03:54:34;101969.12;;;13.12;82.21
79374;BME280;68844;53.128;17.958;2023-09-08T03:57:01;101971.86;;;13.09;82.66
79374;BME280;68844;53.128;17.958;2023-09-08T03:59:27;101971.84;;;13.06;82.63
79374;BME280;68844;53.128;17.958;2023-09-08T04:01:54;101970.73;;;13.04;82.63
79374;BME280;68844;53.128;17.958;2023-09-08T04:04:21;101968.73;;;13.02;82.73
79374;BME280;68844;53.128;17.958;2023-09-08T04:06:49;101974.48;;;13.03;82.69
79374;BME280;68844;53.128;17.958;2023-09-08T04:09:15;101976.02;;;13.04;82.61
79374;BME280;68844;53.128;17.958;2023-09-08T04:11:42;101971.23;;;13.04;82.93
79374;BME280;68844;53.128;17.958;2023-09-08T04:14:09;101972.45;;;13.05;82.86
79374;BME280;68844;53.128;17.958;2023-09-08T04:16:36;101973.40;;;13.07;82.53
79374;BME280;68844;53.128;17.958;2023-09-08T04:19:04;101973.22;;;13.10;82.41
79374;BME280;68844;53.128;17.958;2023-09-08T04:21:30;101975.44;;;13.13;82.74
79374;BME280;68844;53.128;17.958;2023-09-08T04:23:57;101973.13;;;13.13;82.78
79374;BME280;68844;53.128;17.958;2023-09-08T04:26:24;101968.78;;;13.15;82.92
79374;BME280;68844;53.128;17.958;2023-09-08T04:28:50;101970.21;;;13.19;82.49
79374;BME280;68844;53.128;17.958;2023-09-08T04:31:17;101969.80;;;13.24;82.10
79374;BME280;68844;53.128;17.958;2023-09-08T04:33:44;101970.14;;;13.31;82.15
79374;BME280;68844;53.128;17.958;2023-09-08T04:36:11;101968.11;;;13.36;82.49
79374;BME280;68844;53.128;17.958;2023-09-08T04:38:39;101967.27;;;13.43;82.22
79374;BME280;68844;53.128;17.958;2023-09-08T04:41:10;101973.06;;;13.51;82.24
79374;BME280;68844;53.128;17.958;2023-09-08T04:43:37;101975.49;;;13.58;81.76
79374;BME280;68844;53.128;17.958;2023-09-08T04:46:04;101975.23;;;13.71;81.80
79374;BME280;68844;53.128;17.958;2023-09-08T04:48:31;101973.89;;;14.14;81.38
79374;BME280;68844;53.128;17.958;2023-09-08T04:50:57;101977.95;;;15.03;80.55
79374;BME280;68844;53.128;17.958;2023-09-08T04:53:24;101978.23;;;15.84;78.89
79374;BME280;68844;53.128;17.958;2023-09-08T04:55:51;101972.44;;;16.61;76.78
79374;BME280;68844;53.128;17.958;2023-09-08T04:58:19;101973.32;;;17.25;75.19
79374;BME280;68844;53.128;17.958;2023-09-08T05:00:45;101971.98;;;17.93;72.49
79374;BME280;68844;53.128;17.958;2023-09-08T05:03:12;101968.38;;;18.70;71.21
79374;BME280;68844;53.128;17.958;2023-09-08T05:05:39;101962.38;;;19.44;68.18
79374;BME280;68844;53.128;17.958;2023-09-08T05:08:06;101964.61;;;20.17;65.20
79374;BME280;68844;53.128;17.958;2023-09-08T05:10:33;101964.84;;;20.88;62.63
79374;BME280;68844;53.128;17.958;2023-09-08T05:13:00;101960.11;;;21.54;62.50
79374;BME280;68844;53.128;17.958;2023-09-08T05:15:27;101963.21;;;22.14;60.65
79374;BME280;68844;53.128;17.958;2023-09-08T05:17:55;101961.01;;;22.74;57.98
79374;BME280;68844;53.128;17.958;2023-09-08T05:20:22;101957.17;;;23.28;55.17
79374;BME280;68844;53.128;17.958;2023-09-08T05:22:49;101962.27;;;23.70;53.74
79374;BME280;68844;53.128;17.958;2023-09-08T05:25:17;101962.90;;;24.30;52.29
79374;BME280;68844;53.128;17.958;2023-09-08T05:27:44;101960.52;;;24.83;54.41
79374;BME280;68844;53.128;17.958;2023-09-08T05:30:12;101959.92;;;25.05;53.39
79374;BME280;68844;53.128;17.958;2023-09-08T05:32:39;101961.79;;;25.24;51.94
79374;BME280;68844;53.128;17.958;2023-09-08T05:35:06;101956.16;;;25.74;49.83
79374;BME280;68844;53.128;17.958;2023-09-08T05:37:33;101952.26;;;26.26;50.73
79374;BME280;68844;53.128;17.958;2023-09-08T05:40:00;101955.30;;;26.82;47.98
79374;BME280;68844;53.128;17.958;2023-09-08T05:42:27;101958.27;;;27.45;48.55
79374;BME280;68844;53.128;17.958;2023-09-08T05:44:54;101956.14;;;27.71;45.36
79374;BME280;68844;53.128;17.958;2023-09-08T05:47:21;101959.23;;;27.93;42.89
79374;BME280;68844;53.128;17.958;2023-09-08T05:49:48;101956.55;;;28.77;42.55
79374;BME280;68844;53.128;17.958;2023-09-08T05:52:15;101955.13;;;29.54;40.41
79374;BME280;68844;53.128;17.958;2023-09-08T05:54:43;101953.26;;;30.19;38.88
79374;BME280;68844;53.128;17.958;2023-09-08T05:57:09;101955.35;;;30.87;38.55
79374;BME280;68844;53.128;17.958;2023-09-08T05:59:36;101954.63;;;31.46;36.35
79374;BME280;68844;53.128;17.958;2023-09-08T06:02:03;101956.39;;;31.77;36.43
79374;BME280;68844;53.128;17.958;2023-09-08T06:04:29;101953.91;;;31.46;38.95
79374;BME280;68844;53.128;17.958;2023-09-08T06:07:00;101956.58;;;31.48;38.75
79374;BME280;68844;53.128;17.958;2023-09-08T06:09:27;101957.14;;;32.09;37.95
79374;BME280;68844;53.128;17.958;2023-09-08T06:11:54;101952.89;;;32.52;36.50
79374;BME280;68844;53.128;17.958;2023-09-08T06:14:21;101949.30;;;32.90;36.46
79374;BME280;68844;53.128;17.958;2023-09-08T06:16:48;101944.15;;;33.42;34.49
79374;BME280;68844;53.128;17.958;2023-09-08T06:19:15;101942.08;;;33.63;33.10
79374;BME280;68844;53.128;17.958;2023-09-08T06:21:42;101938.45;;;33.80;33.07
79374;BME280;68844;53.128;17.958;2023-09-08T06:24:09;101932.81;;;33.92;32.30
79374;BME280;68844;53.128;17.958;2023-09-08T06:26:37;101932.38;;;34.05;32.52
79374;BME280;68844;53.128;17.958;2023-09-08T06:29:05;101931.50;;;34.60;30.98
79374;BME280;68844;53.128;17.958;2023-09-08T06:31:32;101929.12;;;34.67;30.89
79374;BME280;68844;53.128;17.958;2023-09-08T06:33:59;101926.68;;;34.00;31.56
79374;BME280;68844;53.128;17.958;2023-09-08T06:36:26;101929.90;;;33.70;31.96
79374;BME280;68844;53.128;17.958;2023-09-08T06:38:53;101928.11;;;34.09;31.56
79374;BME280;68844;53.128;17.958;2023-09-08T06:41:19;101928.70;;;34.40;31.08
79374;BME280;68844;53.128;17.958;2023-09-08T06:43:46;101930.81;;;34.49;30.66
79374;BME280;68844;53.128;17.958;2023-09-08T06:46:21;101929.77;;;34.92;29.76
79374;BME280;68844;53.128;17.958;2023-09-08T06:48:48;101931.38;;;35.66;29.90
79374;BME280;68844;53.128;17.958;2023-09-08T06:51:15;101933.34;;;35.90;28.04
79374;BME280;68844;53.128;17.958;2023-09-08T06:53:43;101934.55;;;36.15;27.60
79374;BME280;68844;53.128;17.958;2023-09-08T06:56:11;101935.29;;;36.58;26.86
79374;BME280;68844;53.128;17.958;2023-09-08T06:58:38;101932.59;;;36.60;26.45
79374;BME280;68844;53.128;17.958;2023-09-08T07:01:06;101924.66;;;37.28;26.94
79374;BME280;68844;53.128;17.958;2023-09-08T07:03:32;101923.45;;;37.86;26.48
79374;BME280;68844;53.128;17.958;2023-09-08T07:06:04;101921.59;;;38.05;25.23
79374;BME280;68844;53.128;17.958;2023-09-08T07:08:31;101923.72;;;38.34;25.14
79374;BME280;68844;53.128;17.958;2023-09-08T07:10:57;101918.23;;;38.86;24.02
79374;BME280;68844;53.128;17.958;2023-09-08T07:13:24;101915.86;;;38.97;24.97
79374;BME280;68844;53.128;17.958;2023-09-08T07:15:51;101916.99;;;38.76;24.07
79374;BME280;68844;53.128;17.958;2023-09-08T07:18:18;101913.22;;;38.30;24.42
79374;BME280;68844;53.128;17.958;2023-09-08T07:20:48;101915.96;;;38.69;24.94
79374;BME280;68844;53.128;17.958;2023-09-08T07:23:19;101913.82;;;39.23;24.21
79374;BME280;68844;53.128;17.958;2023-09-08T07:25:47;101918.46;;;39.41;24.27
79374;BME280;68844;53.128;17.958;2023-09-08T07:28:15;101918.69;;;39.08;23.30
79374;BME280;68844;53.128;17.958;2023-09-08T07:30:43;101917.23;;;39.13;23.85
79374;BME280;68844;53.128;17.958;2023-09-08T07:33:09;101911.25;;;39.86;23.80
79374;BME280;68844;53.128;17.958;2023-09-08T07:35:40;101916.94;;;40.03;22.38
79374;BME280;68844;53.128;17.958;2023-09-08T07:38:07;101914.81;;;40.49;23.37
79374;BME280;68844;53.128;17.958;2023-09-08T07:40:34;101916.95;;;41.23;22.69
79374;BME280;68844;53.128;17.958;2023-09-08T07:43:01;101918.02;;;41.60;21.16
79374;BME280;68844;53.128;17.958;2023-09-08T07:45:28;101916.45;;;41.69;20.36
79374;BME280;68844;53.128;17.958;2023-09-08T07:47:54;101915.42;;;40.75;20.43
79374;BME280;68844;53.128;17.958;2023-09-08T07:50:23;101913.65;;;41.21;21.06
79374;BME280;68844;53.128;17.958;2023-09-08T07:52:52;101910.96;;;41.48;21.51
79374;BME280;68844;53.128;17.958;2023-09-08T07:55:19;101910.16;;;41.86;20.42
79374;BME280;68844;53.128;17.958;2023-09-08T07:57:50;101906.70;;;42.50;20.23
79374;BME280;68844;53.128;17.958;2023-09-08T08:00:17;101907.80;;;43.22;19.58
79374;BME280;68844;53.128;17.958;2023-09-08T08:02:50;101910.90;;;43.36;19.34
79374;BME280;68844;53.128;17.958;2023-09-08T08:05:18;101908.14;;;43.05;18.50
79374;BME280;68844;53.128;17.958;2023-09-08T08:07:44;101907.18;;;42.34;19.51
79374;BME280;68844;53.128;17.958;2023-09-08T08:10:12;101905.13;;;42.93;20.13
79374;BME280;68844;53.128;17.958;2023-09-08T08:12:39;101903.91;;;43.37;19.72
79374;BME280;68844;53.128;17.958;2023-09-08T08:15:08;101904.80;;;43.38;19.37
79374;BME280;68844;53.128;17.958;2023-09-08T08:17:36;101901.38;;;43.85;18.69
79374;BME280;68844;53.128;17.958;2023-09-08T08:20:06;101899.48;;;44.57;17.45
79374;BME280;68844;53.128;17.958;2023-09-08T08:22:38;101900.05;;;43.57;17.53
79374;BME280;68844;53.128;17.958;2023-09-08T08:25:05;101897.54;;;42.84;18.06
79374;BME280;68844;53.128;17.958;2023-09-08T08:27:32;101894.48;;;42.43;18.28
79374;BME280;68844;53.128;17.958;2023-09-08T08:29:59;101896.29;;;41.76;18.63
79374;BME280;68844;53.128;17.958;2023-09-08T08:32:27;101893.96;;;41.18;18.76
79374;BME280;68844;53.128;17.958;2023-09-08T08:34:54;101894.64;;;41.53;19.35
79374;BME280;68844;53.128;17.958;2023-09-08T08:37:22;101890.92;;;41.95;19.01
79374;BME280;68844;53.128;17.958;2023-09-08T08:39:49;101885.67;;;42.40;17.79
79374;BME280;68844;53.128;17.958;2023-09-08T08:42:16;101885.84;;;42.12;17.81
79374;BME280;68844;53.128;17.958;2023-09-08T08:44:43;101879.48;;;41.78;18.13
79374;BME280;68844;53.128;17.958;2023-09-08T08:47:12;101877.93;;;41.53;19.46
79374;BME280;68844;53.128;17.958;2023-09-08T08:49:43;101873.64;;;42.28;18.79
79374;BME280;68844;53.128;17.958;2023-09-08T08:52:13;101876.64;;;42.57;17.67
79374;BME280;68844;53.128;17.958;2023-09-08T08:54:41;101876.90;;;41.96;19.00
79374;BME280;68844;53.128;17.958;2023-09-08T08:57:09;101869.89;;;42.44;18.58
79374;BME280;68844;53.128;17.958;2023-09-08T08:59:37;101869.85;;;42.40;17.48
79374;BME280;68844;53.128;17.958;2023-09-08T09:02:05;101874.90;;;42.34;18.95
79374;BME280;68844;53.128;17.958;2023-09-08T09:04:32;101868.55;;;43.01;18.55
79374;BME280;68844;53.128;17.958;2023-09-08T09:06:59;101869.45;;;43.69;17.21
79374;BME280;68844;53.128;17.958;2023-09-08T09:09:26;101869.39;;;42.84;17.70
79374;BME280;68844;53.128;17.958;2023-09-08T09:11:52;101867.73;;;43.31;17.05
79374;BME280;68844;53.128;17.958;2023-09-08T09:14:19;101862.67;;;42.67;17.91
79374;BME280;68844;53.128;17.958;2023-09-08T09:16:46;101866.63;;;43.38;18.31
79374;BME280;68844;53.128;17.958;2023-09-08T09:19:22;101866.14;;;44.00;16.92
79374;BME280;68844;53.128;17.958;2023-09-08T09:21:55;101869.83;;;44.30;16.36
79374;BME280;68844;53.128;17.958;2023-09-08T09:24:30;101866.61;;;43.84;15.73
79374;BME280;68844;53.128;17.958;2023-09-08T09:27:00;101863.25;;;42.36;16.86
79374;BME280;68844;53.128;17.958;2023-09-08T09:29:28;101861.74;;;42.75;16.26
79374;BME280;68844;53.128;17.958;2023-09-08T09:32:05;101861.67;;;42.09;17.21
79374;BME280;68844;53.128;17.958;2023-09-08T09:34:32;101857.01;;;41.95;17.42
79374;BME280;68844;53.128;17.958;2023-09-08T09:36:59;101855.96;;;41.92;17.39
79374;BME280;68844;53.128;17.958;2023-09-08T09:39:26;101852.57;;;41.61;17.75
79374;BME280;68844;53.128;17.958;2023-09-08T09:41:56;101849.50;;;41.92;17.40
79374;BME280;68844;53.128;17.958;2023-09-08T09:44:24;101849.17;;;41.81;17.70
79374;BME280;68844;53.128;17.958;2023-09-08T09:46:53;101843.29;;;40.85;17.77
79374;BME280;68844;53.128;17.958;2023-09-08T09:49:20;101846.52;;;40.86;17.94
79374;BME280;68844;53.128;17.958;2023-09-08T09:51:49;101845.34;;;41.47;17.86
79374;BME280;68844;53.128;17.958;2023-09-08T09:54:19;101841.46;;;41.88;16.78
79374;BME280;68844;53.128;17.958;2023-09-08T09:56:46;101844.36;;;40.85;18.16
79374;BME280;68844;53.128;17.958;2023-09-08T09:59:17;101839.63;;;40.55;18.87
79374;BME280;68844;53.128;17.958;2023-09-08T10:01:44;101838.66;;;40.65;18.67
79374;BME280;68844;53.128;17.958;2023-09-08T10:04:12;101837.52;;;40.94;18.51
79374;BME280;68844;53.128;17.958;2023-09-08T10:06:42;101831.34;;;41.47;17.77
79374;BME280;68844;53.128;17.958;2023-09-08T10:09:09;101829.48;;;41.67;17.71
79374;BME280;68844;53.128;17.958;2023-09-08T10:11:50;101823.58;;;42.23;17.26
79374;BME280;68844;53.128;17.958;2023-09-08T10:14:18;101824.52;;;42.04;16.72
79374;BME280;68844;53.128;17.958;2023-09-08T10:16:46;101820.80;;;41.42;17.43
79374;BME280;68844;53.128;17.958;2023-09-08T10:19:16;101819.45;;;41.25;17.58
79374;BME280;68844;53.128;17.958;2023-09-08T10:21:46;101817.92;;;41.28;17.36
79374;BME280;68844;53.128;17.958;2023-09-08T10:24:22;101815.91;;;40.82;17.83
79374;BME280;68844;53.128;17.958;2023-09-08T10:29:29;101816.69;;;39.49;19.53
79374;BME280;68844;53.128;17.958;2023-09-08T10:31:57;101816.00;;;39.68;19.62
79374;BME280;68844;53.128;17.958;2023-09-08T10:34:25;101814.73;;;39.60;19.35
79374;BME280;68844;53.128;17.958;2023-09-08T10:36:52;101807.83;;;39.63;19.19
79374;BME280;68844;53.128;17.958;2023-09-08T10:39:33;101810.33;;;39.73;19.95
79374;BME280;68844;53.128;17.958;2023-09-08T10:42:19;101810.54;;;39.58;20.15
79374;BME280;68844;53.128;17.958;2023-09-08T10:47:22;101807.27;;;40.21;19.85
79374;BME280;68844;53.128;17.958;2023-09-08T10:49:51;101799.15;;;40.22;18.92
79374;BME280;68844;53.128;17.958;2023-09-08T10:52:26;101793.20;;;39.95;19.24
79374;BME280;68844;53.128;17.958;2023-09-08T10:54:59;101797.36;;;39.44;19.47
79374;BME280;68844;53.128;17.958;2023-09-08T10:57:26;101793.91;;;39.19;19.74
79374;BME280;68844;53.128;17.958;2023-09-08T10:59:56;101792.97;;;39.02;20.25
79374;BME280;68844;53.128;17.958;2023-09-08T11:02:49;101792.86;;;38.94;19.55
79374;BME280;68844;53.128;17.958;2023-09-08T11:05:21;101791.53;;;38.24;20.80
79374;BME280;68844;53.128;17.958;2023-09-08T11:07:48;101789.51;;;37.91;20.40
79374;BME280;68844;53.128;17.958;2023-09-08T11:10:19;101787.39;;;37.15;20.99
79374;BME280;68844;53.128;17.958;2023-09-08T11:12:46;101780.13;;;37.51;20.80
79374;BME280;68844;53.128;17.958;2023-09-08T11:15:12;101784.21;;;37.29;21.41
79374;BME280;68844;53.128;17.958;2023-09-08T11:17:39;101785.20;;;36.90;23.09
79374;BME280;68844;53.128;17.958;2023-09-08T11:20:08;101783.48;;;36.91;23.02
79374;BME280;68844;53.128;17.958;2023-09-08T11:22:38;101779.54;;;37.01;21.28
79374;BME280;68844;53.128;17.958;2023-09-08T11:25:09;101783.59;;;35.87;21.96
79374;BME280;68844;53.128;17.958;2023-09-08T11:27:38;101782.20;;;35.67;22.10
79374;BME280;68844;53.128;17.958;2023-09-08T11:30:07;101781.27;;;35.50;22.82
79374;BME280;68844;53.128;17.958;2023-09-08T11:32:35;101778.00;;;35.77;22.92
79374;BME280;68844;53.128;17.958;2023-09-08T11:35:04;101773.16;;;35.45;22.61
79374;BME280;68844;53.128;17.958;2023-09-08T11:37:40;101766.61;;;35.47;22.79
79374;BME280;68844;53.128;17.958;2023-09-08T11:40:09;101765.77;;;35.30;23.32
79374;BME280;68844;53.128;17.958;2023-09-08T11:42:38;101763.31;;;35.14;23.30
79374;BME280;68844;53.128;17.958;2023-09-08T11:45:14;101765.91;;;35.12;23.77
79374;BME280;68844;53.128;17.958;2023-09-08T11:47:42;101764.74;;;34.99;24.39
79374;BME280;68844;53.128;17.958;2023-09-08T11:50:12;101760.91;;;35.28;24.12
79374;BME280;68844;53.128;17.958;2023-09-08T11:52:52;101765.17;;;35.51;23.24
79374;BME280;68844;53.128;17.958;2023-09-08T11:55:20;101761.11;;;35.40;23.45
79374;BME280;68844;53.128;17.958;2023-09-08T11:57:49;101752.73;;;35.20;24.34
79374;BME280;68844;53.128;17.958;2023-09-08T12:00:18;101752.77;;;35.37;24.27
79374;BME280;68844;53.128;17.958;2023-09-08T12:02:47;101752.14;;;35.44;24.29
79374;BME280;68844;53.128;17.958;2023-09-08T12:05:22;101746.21;;;35.32;23.43
79374;BME280;68844;53.128;17.958;2023-09-08T12:07:54;101749.45;;;35.24;23.99
79374;BME280;68844;53.128;17.958;2023-09-08T12:10:21;101747.46;;;34.76;24.49
79374;BME280;68844;53.128;17.958;2023-09-08T12:12:52;101745.29;;;34.64;24.80
79374;BME280;68844;53.128;17.958;2023-09-08T12:15:36;101743.27;;;34.73;25.18
79374;BME280;68844;53.128;17.958;2023-09-08T12:18:08;101744.72;;;34.77;24.87
79374;BME280;68844;53.128;17.958;2023-09-08T12:20:36;101737.98;;;34.67;24.49
79374;BME280;68844;53.128;17.958;2023-09-08T12:23:20;101733.27;;;34.69;24.77
79374;BME280;68844;53.128;17.958;2023-09-08T12:25:51;101729.07;;;34.58;24.76
79374;BME280;68844;53.128;17.958;2023-09-08T12:28:21;101727.01;;;34.72;25.52
79374;BME280;68844;53.128;17.958;2023-09-08T12:30:49;101729.38;;;34.84;25.31
79374;BME280;68844;53.128;17.958;2023-09-08T12:33:16;101726.73;;;34.37;24.03
79374;BME280;68844;53.128;17.958;2023-09-08T12:35:46;101725.89;;;33.73;25.31
79374;BME280;68844;53.128;17.958;2023-09-08T12:38:19;101722.60;;;33.73;27.12
79374;BME280;68844;53.128;17.958;2023-09-08T12:40:46;101719.39;;;33.99;26.32
79374;BME280;68844;53.128;17.958;2023-09-08T12:43:13;101715.20;;;34.17;25.18
79374;BME280;68844;53.128;17.958;2023-09-08T12:45:39;101713.59;;;34.19;25.17
79374;BME280;68844;53.128;17.958;2023-09-08T12:48:06;101710.23;;;33.92;25.30
79374;BME280;68844;53.128;17.958;2023-09-08T12:50:33;101711.10;;;33.84;25.71
79374;BME280;68844;53.128;17.958;2023-09-08T12:53:00;101707.13;;;33.71;25.97